Terminal Aerodrome Forecast
Issued by NWS

Home | Current Version | Previous Version | Text Only | Print | Product List | Glossary On
Versions: 1 2 3 4 5 6 7 8 9 10 11 12 13 14 15 16 17 18 19 20 21 22 23 24 25 26 27 28 29 30 31 32 33 34
000
FTUS45 KGJT 281738
TAFMTJ
TAF
KMTJ 281738Z 2818/0118 19003KT P6SM OVC070
     FM281900 33010KT P6SM VCSH SCT030 OVC050
      TEMPO 2819/2821 5SM -SHRASN BKN025 OVC040
     FM282100 34003KT 4SM -SNRA BR OVC025
      TEMPO 2821/2824 P6SM NSW SCT025 BKN040
     FM010600 20006KT P6SM SCT050 BKN120=

USA.gov is the U.S. government's official web portal to all federal, state and local government web resources and services.